createdAt,value
2018-09-17T00:00:25.246Z,5.63
2018-09-17T00:02:52.990Z,6.27
2018-09-17T00:05:21.880Z,3.50
2018-09-17T00:07:50.199Z,5.40
2018-09-17T00:10:18.516Z,5.40
2018-09-17T00:12:46.825Z,3.17
2018-09-17T00:15:15.144Z,4.30
2018-09-17T00:17:42.889Z,4.43
2018-09-17T00:20:11.788Z,3.67
2018-09-17T00:22:39.526Z,6.43
2018-09-17T00:25:07.841Z,5.07
2018-09-17T00:27:36.158Z,4.57
2018-09-17T00:30:06.265Z,3.70
2018-09-17T00:32:33.380Z,4.90
2018-09-17T00:35:01.119Z,4.20
2018-09-17T00:37:29.427Z,5.53
2018-09-17T00:39:58.321Z,4.10
2018-09-17T00:42:26.058Z,6.00
2018-09-17T00:44:54.969Z,3.97
2018-09-17T00:47:23.280Z,3.47
2018-09-17T00:49:51.597Z,4.67
2018-09-17T00:52:20.030Z,3.20
2018-09-17T00:54:48.359Z,3.70
2018-09-17T00:57:16.705Z,6.60
2018-09-17T00:59:44.439Z,4.97
2018-09-17T01:02:13.330Z,4.50
2018-09-17T01:04:41.652Z,4.00
2018-09-17T01:07:09.385Z,4.07
2018-09-17T01:09:37.706Z,4.80
2018-09-17T01:12:06.601Z,4.67
2018-09-17T01:14:34.337Z,4.07
2018-09-17T01:17:02.653Z,4.23
2018-09-17T01:19:30.973Z,6.73
2018-09-17T01:21:59.286Z,3.63
2018-09-17T01:24:27.604Z,4.53
2018-09-17T01:26:55.922Z,4.30
2018-09-17T01:29:24.238Z,4.37
2018-09-17T01:31:53.124Z,6.10
2018-09-17T01:34:20.866Z,4.87
2018-09-17T01:36:49.756Z,3.80
2018-09-17T01:39:18.076Z,7.10
2018-09-17T01:41:46.387Z,4.27
2018-09-17T01:44:14.706Z,5.40
2018-09-17T01:46:43.017Z,3.23
2018-09-17T01:49:11.339Z,4.83
2018-09-17T01:51:39.660Z,3.23
2018-09-17T01:54:07.402Z,5.17
2018-09-17T01:56:36.306Z,3.97
2018-09-17T01:59:04.624Z,3.30
2018-09-17T02:01:32.931Z,4.70
2018-09-17T02:04:00.724Z,4.03
2018-09-17T02:06:29.590Z,5.33
2018-09-17T02:08:57.345Z,3.37
2018-09-17T02:11:26.216Z,4.93
2018-09-17T02:13:54.537Z,3.53
2018-09-17T02:16:22.853Z,4.63
2018-09-17T02:18:51.164Z,2.47
2018-09-17T02:21:18.900Z,4.97
2018-09-17T02:23:47.701Z,4.23
2018-09-17T02:26:15.532Z,3.03
2018-09-17T02:28:43.858Z,4.30
2018-09-17T02:31:12.165Z,4.47
2018-09-17T02:33:41.062Z,3.60
2018-09-17T02:36:08.798Z,4.20
2018-09-17T02:38:37.693Z,3.60
2018-09-17T02:41:06.001Z,3.23
2018-09-17T02:43:33.751Z,3.03
2018-09-17T02:46:02.651Z,5.87
2018-09-17T02:48:30.955Z,4.90
2018-09-17T02:50:58.690Z,3.07
2018-09-17T02:53:27.657Z,4.67
2018-09-17T02:55:55.907Z,5.03
2018-09-17T02:58:24.222Z,3.53
2018-09-17T03:00:51.983Z,3.53
2018-09-17T03:03:20.881Z,3.60
2018-09-17T03:05:48.620Z,2.60
2018-09-17T03:08:17.520Z,3.87
2018-09-17T03:10:45.836Z,4.57
2018-09-17T03:13:13.584Z,4.97
2018-09-17T03:15:45.168Z,2.90
2018-09-17T03:18:13.489Z,2.83
2018-09-17T03:20:41.229Z,3.87
2018-09-17T03:23:09.550Z,4.00
2018-09-17T03:25:38.451Z,4.23
2018-09-17T03:28:06.197Z,5.50
2018-09-17T03:30:35.128Z,5.53
2018-09-17T03:33:03.450Z,5.50
2018-09-17T03:35:31.767Z,4.23
2018-09-17T03:38:00.084Z,3.40
2018-09-17T03:40:28.409Z,6.23
2018-09-17T03:42:56.728Z,4.30
2018-09-17T03:45:24.463Z,4.17
2018-09-17T03:47:52.801Z,5.17
2018-09-17T03:50:21.676Z,3.57
2018-09-17T03:52:49.993Z,3.13
2018-09-17T03:55:18.310Z,4.93
2018-09-17T03:57:46.630Z,6.73
2018-09-17T04:00:14.381Z,16.33
2018-09-17T04:02:43.308Z,3.17
2018-09-17T04:05:11.617Z,4.23
2018-09-17T04:07:39.477Z,4.53
2018-09-17T04:10:07.670Z,4.20
2018-09-17T04:12:35.982Z,5.43
2018-09-17T04:15:04.874Z,3.90
2018-09-17T04:17:33.198Z,3.67
2018-09-17T04:20:01.511Z,6.53
2018-09-17T04:22:29.841Z,5.30
2018-09-17T04:24:58.151Z,3.93
2018-09-17T04:27:26.470Z,3.93
2018-09-17T04:29:54.209Z,3.70
2018-09-17T04:32:23.099Z,4.97
2018-09-17T04:34:51.423Z,14.27
2018-09-17T04:37:19.752Z,5.20
2018-09-17T04:39:47.553Z,5.77
2018-09-17T04:42:16.382Z,4.13
2018-09-17T04:44:44.136Z,3.40
2018-09-17T04:47:12.450Z,3.70
2018-09-17T04:49:41.349Z,4.23
2018-09-17T04:52:09.688Z,21.57
2018-09-17T04:54:37.505Z,7.93
2018-09-17T04:57:06.323Z,4.73
2018-09-17T04:59:34.637Z,3.90
2018-09-17T05:02:02.955Z,4.60
2018-09-17T05:04:31.309Z,5.03
2018-09-17T05:06:59.046Z,8.43
2018-09-17T05:09:28.100Z,6.40
2018-09-17T05:11:56.633Z,4.27
2018-09-17T05:14:24.965Z,3.73
2018-09-17T05:16:53.281Z,14.50
2018-09-17T05:19:21.374Z,4.27
2018-09-17T05:21:49.936Z,4.40
2018-09-17T05:24:17.469Z,4.60
2018-09-17T05:26:46.402Z,5.77
2018-09-17T05:29:15.796Z,5.60
2018-09-17T05:31:44.143Z,3.53
2018-09-17T05:34:11.893Z,4.20
2018-09-17T05:36:40.810Z,5.43
2018-09-17T05:39:08.562Z,16.03
2018-09-17T05:41:36.885Z,8.00
2018-09-17T05:44:05.790Z,3.90
2018-09-17T05:46:33.583Z,7.27
2018-09-17T05:49:02.417Z,5.27
2018-09-17T05:51:30.755Z,3.70
2018-09-17T05:53:59.073Z,6.03
2018-09-17T05:56:27.395Z,5.63
2018-09-17T05:58:55.140Z,7.37
2018-09-17T06:01:23.537Z,3.37
2018-09-17T06:03:52.457Z,6.50
2018-09-17T06:06:20.803Z,6.73
2018-09-17T06:08:49.118Z,3.57
2018-09-17T06:11:16.905Z,3.27
2018-09-17T06:13:45.773Z,4.77
2018-09-17T06:16:13.507Z,5.50
2018-09-17T06:18:41.835Z,5.03
2018-09-17T06:21:10.769Z,10.77
2018-09-17T06:23:38.513Z,12.07
2018-09-17T06:26:07.413Z,6.27
2018-09-17T06:28:35.808Z,7.47
2018-09-17T06:31:04.104Z,7.50
2018-09-17T06:33:31.838Z,5.30
2018-09-17T06:36:01.141Z,4.07
2018-09-17T06:38:28.887Z,6.07
2018-09-17T06:40:57.783Z,4.80
2018-09-17T06:43:26.101Z,4.57
2018-09-17T06:45:53.841Z,4.27
2018-09-17T06:48:22.790Z,5.83
2018-09-17T06:50:51.323Z,5.63
2018-09-17T06:53:19.079Z,4.50
2018-09-17T06:55:48.017Z,4.93
2018-09-17T06:58:16.321Z,4.83
2018-09-17T07:00:44.070Z,7.33
2018-09-17T07:03:12.973Z,4.07
2018-09-17T07:05:41.306Z,3.30
2018-09-17T07:08:09.080Z,3.70
2018-09-17T07:10:38.000Z,3.97
2018-09-17T07:13:05.746Z,5.33
2018-09-17T07:15:34.681Z,8.70
2018-09-17T07:18:03.033Z,3.23
2018-09-17T07:20:31.326Z,5.13
2018-09-17T07:22:59.683Z,10.83
2018-09-17T07:25:28.025Z,6.43
2018-09-17T07:27:56.348Z,5.73
2018-09-17T07:30:24.109Z,6.60
2018-09-17T07:32:53.025Z,4.77
2018-09-17T07:35:21.355Z,3.47
2018-09-17T07:37:49.096Z,3.80
2018-09-17T07:40:17.414Z,9.23
2018-09-17T07:42:46.730Z,6.50
2018-09-17T07:45:15.020Z,5.40
2018-09-17T07:47:43.352Z,5.27
2018-09-17T07:50:11.728Z,10.70
2018-09-17T07:52:40.071Z,3.57
2018-09-17T07:55:08.725Z,4.70
2018-09-17T07:57:37.839Z,5.03
2018-09-17T08:00:05.655Z,3.70
2018-09-17T08:02:34.496Z,3.70
2018-09-17T08:05:22.052Z,6.30
2018-09-17T08:07:51.251Z,3.73
2018-09-17T08:10:19.543Z,4.30
2018-09-17T08:12:47.874Z,4.27
2018-09-17T08:15:16.236Z,6.93
2018-09-17T08:17:44.551Z,5.27
2018-09-17T08:20:12.916Z,6.83
2018-09-17T08:22:40.645Z,3.80
2018-09-17T08:25:09.559Z,3.27
2018-09-17T08:27:37.880Z,4.50
2018-09-17T08:30:06.200Z,5.47
2018-09-17T08:32:34.522Z,5.00
2018-09-17T08:35:02.314Z,4.67
2018-09-17T08:37:31.285Z,4.60
2018-09-17T08:39:59.681Z,4.47
2018-09-17T08:42:28.057Z,3.10
2018-09-17T08:44:55.795Z,5.10
2018-09-17T08:47:24.728Z,3.60
2018-09-17T08:49:53.140Z,5.97
2018-09-17T08:52:21.520Z,6.47
2018-09-17T08:54:49.809Z,4.27
2018-09-17T08:57:18.212Z,4.57
2018-09-17T08:59:46.600Z,8.27
2018-09-17T09:02:14.381Z,4.17
2018-09-17T09:04:42.702Z,4.30
2018-09-17T09:07:11.025Z,3.63
2018-09-17T09:09:39.925Z,4.17
2018-09-17T09:12:07.693Z,3.47
2018-09-17T09:14:36.600Z,3.43
2018-09-17T09:17:04.921Z,6.27
2018-09-17T09:19:33.259Z,4.13
2018-09-17T09:22:00.983Z,3.83
2018-09-17T09:24:29.880Z,3.13
2018-09-17T09:26:58.202Z,3.33
2018-09-17T09:29:26.537Z,3.67
2018-09-17T09:31:54.847Z,6.83
2018-09-17T09:34:23.172Z,5.07
2018-09-17T09:36:51.491Z,6.20
2018-09-17T09:39:19.225Z,4.37
2018-09-17T09:41:47.544Z,4.23
2018-09-17T09:44:15.863Z,3.77
2018-09-17T09:46:44.773Z,4.13
2018-09-17T09:49:13.099Z,5.40
2018-09-17T09:51:40.847Z,3.90
2018-09-17T09:54:09.760Z,3.47
2018-09-17T09:56:37.497Z,3.33
2018-09-17T09:59:06.401Z,6.07
2018-09-17T10:01:34.642Z,3.07
2018-09-17T10:04:03.097Z,5.13
2018-09-17T10:06:31.421Z,5.27
2018-09-17T10:08:59.741Z,6.97
2018-09-17T10:11:29.322Z,10.47
2018-09-17T10:13:59.466Z,5.00
2018-09-17T10:16:27.796Z,11.50
2018-09-17T10:19:01.065Z,6.33
2018-09-17T10:21:30.006Z,6.83
2018-09-17T10:23:58.338Z,5.23
2018-09-17T10:26:26.067Z,4.50
2018-09-17T10:28:54.390Z,4.20
2018-09-17T10:31:23.303Z,4.10
2018-09-17T10:33:51.036Z,3.47
2018-09-17T10:36:19.936Z,3.87
2018-09-17T10:38:48.257Z,4.17
2018-09-17T10:41:16.577Z,2.43
2018-09-17T10:43:44.898Z,3.77
2018-09-17T10:46:12.637Z,2.93
2018-09-17T10:48:40.966Z,4.63
2018-09-17T10:51:09.290Z,4.53
2018-09-17T10:53:37.628Z,4.60
2018-09-17T10:56:06.546Z,10.50
2018-09-17T10:58:34.861Z,4.17
2018-09-17T11:01:03.196Z,6.17
2018-09-17T11:03:31.523Z,4.50
2018-09-17T11:05:59.841Z,6.00
2018-09-17T11:08:28.163Z,3.17
2018-09-17T11:10:56.496Z,6.87
2018-09-17T11:13:24.820Z,5.57
2018-09-17T11:15:52.595Z,3.40
2018-09-17T11:18:20.920Z,5.20
2018-09-17T11:20:49.833Z,3.67
2018-09-17T11:23:18.182Z,4.80
2018-09-17T11:25:46.502Z,6.73
2018-09-17T11:28:14.825Z,8.27
2018-09-17T11:30:42.561Z,3.30
2018-09-17T11:33:10.881Z,7.63
2018-09-17T11:35:39.791Z,10.70
2018-09-17T11:38:08.106Z,3.77
2018-09-17T11:40:36.425Z,3.37
2018-09-17T11:43:04.747Z,6.77
2018-09-17T11:45:33.075Z,4.47
2018-09-17T11:48:01.388Z,7.47
2018-09-17T11:50:29.130Z,3.63
2018-09-17T11:52:58.033Z,5.67
2018-09-17T11:55:25.832Z,3.77
2018-09-17T11:57:54.674Z,2.77
2018-09-17T12:00:22.415Z,4.67
2018-09-17T12:02:50.755Z,4.47
2018-09-17T12:05:19.652Z,3.67
2018-09-17T12:07:47.389Z,9.07
2018-09-17T12:10:16.309Z,4.73
2018-09-17T12:12:44.631Z,3.90
2018-09-17T12:15:12.951Z,5.53
2018-09-17T12:17:40.757Z,4.17
2018-09-17T12:20:09.667Z,4.20
2018-09-17T12:22:37.999Z,6.73
2018-09-17T12:25:05.743Z,3.30
2018-09-17T12:27:34.644Z,4.03
2018-09-17T12:30:02.963Z,4.67
2018-09-17T12:32:31.280Z,3.97
2018-09-17T12:34:59.596Z,3.63
2018-09-17T12:37:27.349Z,5.50
2018-09-17T12:39:56.249Z,9.70
2018-09-17T12:42:24.579Z,3.90
2018-09-17T12:44:52.951Z,7.13
2018-09-17T12:47:21.225Z,4.30
2018-09-17T12:49:48.963Z,6.80
2018-09-17T12:52:17.945Z,3.27
2018-09-17T12:54:46.273Z,4.80
2018-09-17T12:57:14.625Z,4.40
2018-09-17T12:59:42.931Z,4.50
2018-09-17T13:02:10.688Z,3.53
2018-09-17T13:04:39.599Z,5.93
2018-09-17T13:07:07.348Z,4.43
2018-09-17T13:09:35.670Z,4.53
2018-09-17T13:12:04.585Z,4.53
2018-09-17T13:14:32.326Z,5.60
2018-09-17T13:17:01.266Z,5.20
2018-09-17T13:19:29.628Z,4.23
2018-09-17T13:21:57.960Z,4.37
2018-09-17T13:24:26.288Z,5.97
2018-09-17T13:26:54.047Z,5.33
2018-09-17T13:29:22.946Z,5.80
2018-09-17T13:31:51.514Z,26.17
2018-09-17T13:34:19.644Z,6.63
2018-09-17T13:36:47.989Z,7.30
2018-09-17T13:39:16.792Z,6.17
2018-09-17T13:41:45.438Z,5.43
2018-09-17T13:44:13.792Z,10.50
2018-09-17T13:46:42.158Z,4.40
2018-09-17T13:49:10.447Z,6.20
2018-09-17T13:51:39.156Z,6.17
2018-09-17T13:54:07.824Z,8.07
2018-09-17T13:56:38.417Z,8.10
2018-09-17T13:59:06.759Z,7.80
2018-09-17T14:01:35.528Z,6.50
2018-09-17T14:04:03.868Z,4.77
2018-09-17T14:06:32.866Z,7.03
2018-09-17T14:09:00.606Z,6.80
2018-09-17T14:11:29.511Z,11.83
2018-09-17T14:13:57.849Z,7.03
2018-09-17T14:16:26.182Z,7.63
2018-09-17T14:18:54.518Z,6.40
2018-09-17T14:21:22.880Z,7.33
2018-09-17T14:23:51.462Z,5.37
2018-09-17T14:26:20.551Z,8.03
2018-09-17T14:28:48.730Z,8.03
2018-09-17T14:31:17.047Z,3.27
2018-09-17T14:33:44.798Z,7.43
2018-09-17T14:36:13.707Z,8.00
2018-09-17T14:38:42.043Z,8.97
2018-09-17T14:41:10.375Z,7.50
2018-09-17T14:43:38.214Z,5.37
2018-09-17T14:46:07.047Z,5.77
2018-09-17T14:48:35.359Z,5.60
2018-09-17T14:51:03.125Z,11.03
2018-09-17T14:53:32.136Z,4.30
2018-09-17T14:56:00.281Z,12.73
2018-09-17T14:58:29.167Z,5.43
2018-09-17T15:00:57.513Z,4.40
2018-09-17T15:03:25.811Z,5.20
2018-09-17T15:05:54.136Z,5.80
2018-09-17T15:08:22.561Z,4.27
2018-09-17T15:10:50.256Z,5.67
2018-09-17T15:13:19.161Z,4.73
2018-09-17T15:15:47.437Z,4.07
2018-09-17T15:18:15.310Z,6.00
2018-09-17T15:20:44.200Z,8.57
2018-09-17T15:23:12.548Z,7.00
2018-09-17T15:25:40.870Z,6.70
2018-09-17T15:28:09.210Z,7.00
2018-09-17T15:30:36.925Z,6.43
2018-09-17T15:33:05.239Z,7.73
2018-09-17T15:35:34.366Z,4.60
2018-09-17T15:38:01.922Z,4.90
2018-09-17T15:40:30.299Z,6.87
2018-09-17T15:42:59.095Z,4.70
2018-09-17T15:45:27.415Z,5.97
2018-09-17T15:47:55.725Z,7.00
2018-09-17T15:50:24.044Z,7.27
2018-09-17T15:52:52.360Z,8.73
2018-09-17T15:55:20.666Z,7.73
2018-09-17T15:57:49.030Z,6.77
2018-09-17T16:00:17.521Z,5.43
2018-09-17T16:02:45.617Z,6.93
2018-09-17T16:05:13.393Z,7.23
2018-09-17T16:07:42.298Z,12.03
2018-09-17T16:10:10.640Z,6.57
2018-09-17T16:12:38.989Z,6.97
2018-09-17T16:15:07.361Z,8.23
2018-09-17T16:17:35.100Z,16.67
2018-09-17T16:20:04.136Z,10.90
2018-09-17T16:22:32.365Z,9.73
2018-09-17T16:25:00.546Z,7.37
2018-09-17T16:27:29.500Z,9.30
2018-09-17T16:29:57.256Z,9.53
2018-09-17T16:32:25.825Z,21.37
2018-09-17T16:34:54.887Z,24.50
2018-09-17T16:37:23.229Z,8.03
2018-09-17T16:39:51.571Z,10.17
2018-09-17T16:42:19.934Z,9.27
2018-09-17T16:44:55.645Z,14.33
2018-09-17T16:47:24.580Z,23.47
2018-09-17T16:49:52.934Z,28.43
2018-09-17T16:52:21.282Z,6.03
2018-09-17T16:54:53.579Z,5.93
2018-09-17T16:57:22.045Z,4.43
2018-09-17T16:59:50.425Z,5.80
2018-09-17T17:02:18.753Z,8.40
2018-09-17T17:04:46.564Z,9.93
2018-09-17T17:07:20.096Z,7.77
2018-09-17T17:09:49.077Z,9.10
2018-09-17T17:12:15.309Z,5.30
2018-09-17T17:17:51.007Z,7.60
2018-09-17T17:20:09.195Z,6.87
2018-09-17T17:22:37.811Z,9.70
2018-09-17T17:25:07.207Z,6.13
2018-09-17T17:27:36.431Z,8.47
2018-09-17T17:30:04.898Z,6.93
2018-09-17T17:32:33.232Z,9.33
2018-09-17T17:35:01.559Z,5.73
2018-09-17T17:37:30.275Z,11.57
2018-09-17T17:39:58.169Z,7.73
2018-09-17T17:42:27.732Z,9.20
2018-09-17T17:44:55.713Z,8.77
2018-09-17T17:47:24.318Z,12.93
2018-09-17T17:49:52.996Z,11.73
2018-09-17T17:52:21.328Z,14.17
2018-09-17T17:54:49.641Z,8.43
2018-09-17T17:57:17.439Z,15.97
2018-09-17T17:59:46.332Z,20.53
2018-09-17T18:02:14.102Z,19.73
2018-09-17T18:04:43.023Z,23.50
2018-09-17T18:07:10.978Z,38.50
2018-09-17T18:09:39.757Z,30.43
2018-09-17T18:12:08.172Z,35.33
2018-09-17T18:14:36.514Z,31.37
2018-09-17T18:17:04.282Z,60.03
2018-09-17T18:19:33.210Z,75.10
2018-09-17T18:22:01.564Z,61.03
2018-09-17T18:24:29.351Z,52.83
2018-09-17T18:26:58.381Z,32.10
2018-09-17T18:29:27.694Z,25.00
2018-09-17T18:31:56.044Z,20.10
2018-09-17T18:34:24.160Z,87.50
2018-09-17T18:36:52.548Z,22.83
2018-09-17T18:39:21.495Z,19.73
2018-09-17T18:41:49.763Z,12.17
2018-09-17T18:44:18.124Z,14.50
2018-09-17T18:46:46.468Z,11.53
2018-09-17T18:49:14.803Z,18.53
2018-09-17T18:51:43.144Z,15.87
2018-09-17T18:54:11.509Z,16.43
2018-09-17T18:56:39.293Z,13.80
2018-09-17T18:59:08.206Z,14.17
2018-09-17T19:01:36.540Z,14.83
2018-09-17T19:04:04.384Z,20.20
2018-09-17T19:06:32.622Z,44.23
2018-09-17T19:09:01.631Z,59.73
2018-09-17T19:11:31.141Z,41.80
2018-09-17T19:13:58.455Z,38.27
2018-09-17T19:16:26.790Z,37.53
2018-09-17T19:18:55.108Z,32.10
2018-09-17T19:21:22.898Z,25.63
2018-09-17T19:23:51.833Z,32.13
2018-09-17T19:26:20.241Z,29.67
2018-09-17T19:28:50.618Z,18.53
2018-09-17T19:31:18.739Z,16.93
2018-09-17T19:33:46.555Z,17.13
2018-09-17T19:36:15.492Z,13.77
2018-09-17T19:38:44.547Z,21.73
2018-09-17T19:41:12.880Z,41.63
2018-09-17T19:43:40.686Z,34.43
2018-09-17T19:46:11.960Z,21.00
2018-09-17T19:48:40.663Z,18.87
2018-09-17T19:51:08.683Z,13.50
2018-09-17T19:53:37.558Z,18.73
2018-09-17T19:56:05.938Z,15.43
2018-09-17T19:58:39.159Z,24.47
2018-09-17T20:01:07.517Z,19.47
2018-09-17T20:03:35.851Z,18.23
2018-09-17T20:06:03.606Z,24.73
2018-09-17T20:08:31.940Z,25.57
2018-09-17T20:11:00.868Z,62.57
2018-09-17T20:13:29.197Z,23.70
2018-09-17T20:15:57.549Z,19.47
2018-09-17T20:18:25.992Z,22.80
2018-09-17T20:20:54.327Z,15.57
2018-09-17T20:23:22.659Z,10.30
2018-09-17T20:25:50.983Z,8.33
2018-09-17T20:28:19.311Z,9.87
2018-09-17T20:30:47.911Z,8.73
2018-09-17T20:33:15.665Z,9.60
2018-09-17T20:35:43.781Z,7.90
2018-09-17T20:38:12.747Z,9.20
2018-09-17T20:40:41.064Z,6.97
2018-09-17T20:43:09.434Z,5.60
2018-09-17T20:45:37.774Z,5.83
2018-09-17T20:48:06.306Z,5.30
2018-09-17T20:50:34.051Z,7.40
2018-09-17T20:53:03.239Z,11.50
2018-09-17T20:55:34.448Z,14.73
2018-09-17T20:58:03.105Z,13.63
2018-09-17T21:00:30.942Z,12.87
2018-09-17T21:02:59.893Z,12.77
2018-09-17T21:05:29.157Z,12.87
2018-09-17T21:07:56.909Z,17.77
2018-09-17T21:10:25.858Z,13.60
2018-09-17T21:12:54.242Z,13.07
2018-09-17T21:15:23.605Z,14.63
2018-09-17T21:17:51.707Z,10.03
2018-09-17T21:20:20.044Z,9.07
2018-09-17T21:22:48.456Z,6.80
2018-09-17T21:25:16.823Z,7.10
2018-09-17T21:27:45.465Z,7.13
2018-09-17T21:30:14.164Z,7.10
2018-09-17T21:32:41.359Z,6.20
2018-09-17T21:35:09.776Z,6.10
2018-09-17T21:37:40.005Z,6.13
2018-09-17T21:40:06.405Z,10.33
2018-09-17T21:42:35.703Z,13.03
2018-09-17T21:45:04.025Z,13.53
2018-09-17T21:47:31.781Z,12.50
2018-09-17T21:50:00.685Z,15.37
2018-09-17T21:52:29.027Z,15.37
2018-09-17T21:54:57.344Z,16.63
2018-09-17T21:57:25.668Z,12.60
2018-09-17T21:59:53.998Z,14.07
2018-09-17T22:02:22.378Z,17.23
2018-09-17T22:04:50.076Z,15.57
2018-09-17T22:07:18.994Z,12.37
2018-09-17T22:09:47.309Z,5.80
2018-09-17T22:12:21.842Z,6.20
2018-09-17T22:14:50.194Z,7.57
2018-09-17T22:17:18.521Z,4.90
2018-09-17T22:19:46.888Z,7.87
2018-09-17T22:22:15.148Z,7.37
2018-09-17T22:24:42.942Z,7.37
2018-09-17T22:27:11.214Z,5.37
2018-09-17T22:29:39.528Z,5.53
2018-09-17T22:32:08.431Z,5.33
2018-09-17T22:34:36.182Z,7.23
2018-09-17T22:37:05.090Z,5.63
2018-09-17T22:39:33.403Z,7.67
2018-09-17T22:42:01.760Z,7.23
2018-09-17T22:44:29.452Z,7.07
2018-09-17T22:46:58.344Z,6.43
2018-09-17T22:49:26.692Z,6.00
2018-09-17T22:51:54.423Z,5.40
2018-09-17T22:54:23.314Z,6.60
2018-09-17T22:56:51.058Z,7.97
2018-09-17T22:59:19.953Z,5.00
2018-09-17T23:01:47.684Z,6.03
2018-09-17T23:04:16.589Z,6.00
2018-09-17T23:06:44.345Z,7.00
2018-09-17T23:09:13.238Z,8.00
2018-09-17T23:11:41.557Z,6.73
2018-09-17T23:14:09.871Z,4.63
2018-09-17T23:16:38.196Z,6.77
2018-09-17T23:19:05.934Z,9.70
2018-09-17T23:21:34.250Z,9.93
2018-09-17T23:24:02.576Z,10.50
2018-09-17T23:26:31.479Z,8.07
2018-09-17T23:28:59.794Z,10.43
2018-09-17T23:31:27.536Z,12.50
2018-09-17T23:33:55.869Z,8.87
2018-09-17T23:36:24.209Z,8.27
2018-09-17T23:38:52.521Z,10.27
2018-09-17T23:41:21.430Z,13.63
2018-09-17T23:43:49.177Z,14.57
2018-09-17T23:46:18.099Z,13.90
2018-09-17T23:48:46.429Z,21.80
2018-09-17T23:51:14.752Z,22.70
2018-09-17T23:53:42.509Z,19.97
2018-09-17T23:56:10.941Z,13.77
2018-09-17T23:58:39.160Z,21.60
